Time;durP1;ratioP1;P1;durP2;ratioP2;P2;SDS_P1;SDS_P2;PMS_P1;PMS_P2;Temp;Humidity;BMP_temperature;BMP_pressure;BME280_temperature;BME280_humidity;BME280_pressure;Samples;Min_cycle;Max_cycle;Signal;HPM_P1;HPM_P2
2024/03/07 00:01:07;;;;;;;76.68;26.58;;;;;;;;;;5105183;28;20020;-55
2024/03/07 00:03:34;;;;;;;73.35;27.75;;;;;;;;;;5112400;28;20498;-55
2024/03/07 00:06:00;;;;;;;81.60;29.08;;;;;;;;;;5089065;28;20028;-55
2024/03/07 00:08:26;;;;;;;82.65;28.63;;;;;;;;;;5095998;28;20058;-55
2024/03/07 00:10:52;;;;;;;88.07;26.20;;;;;;;;;;5087644;28;20036;-55
2024/03/07 00:13:18;;;;;;;89.20;28.88;;;;;;;;;;5091938;28;20024;-55
2024/03/07 00:15:44;;;;;;;94.10;29.60;;;;;;;;;;5100645;28;20076;-54
2024/03/07 00:18:11;;;;;;;94.63;29.55;;;;;;;;;;5107086;28;20051;-55
2024/03/07 00:20:37;;;;;;;93.30;29.35;;;;;;;;;;5094908;28;20028;-54
2024/03/07 00:23:04;;;;;;;86.85;27.38;;;;;;;;;;5102053;28;20059;-55
2024/03/07 00:25:31;;;;;;;83.53;28.90;;;;;;;;;;5096353;28;20472;-53
2024/03/07 00:28:02;;;;;;;84.30;28.73;;;;;;;;;;5092708;28;20016;-55
2024/03/07 00:30:29;;;;;;;79.03;27.77;;;;;;;;;;5102130;28;20107;-54
2024/03/07 00:32:55;;;;;;;75.88;26.70;;;;;;;;;;5104435;28;20495;-57
2024/03/07 00:35:21;;;;;;;82.93;28.83;;;;;;;;;;5097182;28;20055;-52
2024/03/07 00:37:47;;;;;;;83.03;28.73;;;;;;;;;;5103822;28;20104;-55
2024/03/07 00:40:13;;;;;;;80.13;27.77;;;;;;;;;;5101240;28;20398;-53
2024/03/07 00:42:39;;;;;;;89.38;28.05;;;;;;;;;;5102617;28;20028;-55
2024/03/07 00:45:06;;;;;;;86.03;27.85;;;;;;;;;;5103178;28;20395;-54
2024/03/07 00:47:32;;;;;;;84.18;27.38;;;;;;;;;;5100262;28;20543;-52
2024/03/07 00:49:58;;;;;;;89.20;28.85;;;;;;;;;;5095988;28;20019;-54
2024/03/07 00:52:25;;;;;;;87.50;29.00;;;;;;;;;;5088783;28;20051;-51
2024/03/07 00:54:51;;;;;;;89.72;27.45;;;;;;;;;;5087564;28;20032;-54
2024/03/07 00:57:17;;;;;;;90.22;28.70;;;;;;;;;;5091636;28;20032;-54
2024/03/07 00:59:43;;;;;;;89.88;29.10;;;;;;;;;;5092959;28;20051;-55
2024/03/07 01:02:09;;;;;;;88.60;28.08;;;;;;;;;;5091053;28;20035;-53
2024/03/07 01:04:35;;;;;;;75.70;27.63;;;;;;;;;;5104545;28;20036;-54
2024/03/07 01:07:01;;;;;;;89.95;29.95;;;;;;;;;;5103788;28;20471;-54
2024/03/07 01:09:30;;;;;;;86.28;29.42;;;;;;;;;;5106755;28;20127;-54
2024/03/07 01:11:56;;;;;;;96.40;28.55;;;;;;;;;;5102701;28;20036;-55
2024/03/07 01:14:23;;;;;;;82.82;30.05;;;;;;;;;;5086379;28;20028;-54
2024/03/07 01:16:49;;;;;;;89.95;28.20;;;;;;;;;;5100006;28;20028;-55
2024/03/07 01:19:15;;;;;;;87.53;28.17;;;;;;;;;;5094943;28;20525;-55
2024/03/07 01:21:41;;;;;;;85.93;27.95;;;;;;;;;;5093671;28;20028;-54
2024/03/07 01:24:07;;;;;;;81.63;27.25;;;;;;;;;;5086049;28;20032;-55
2024/03/07 01:26:33;;;;;;;93.00;28.83;;;;;;;;;;5075713;28;20115;-54
2024/03/07 01:28:59;;;;;;;93.53;28.92;;;;;;;;;;5105467;28;20042;-55
2024/03/07 01:31:25;;;;;;;92.32;30.60;;;;;;;;;;5100616;28;20067;-54
2024/03/07 01:33:51;;;;;;;96.25;30.00;;;;;;;;;;5089696;28;20110;-55
2024/03/07 01:36:18;;;;;;;99.65;30.20;;;;;;;;;;5097182;28;20039;-55
2024/03/07 01:38:43;;;;;;;98.72;29.90;;;;;;;;;;5095046;28;20032;-55
2024/03/07 01:41:10;;;;;;;80.10;27.42;;;;;;;;;;5087813;28;20047;-54
2024/03/07 01:43:36;;;;;;;89.38;30.02;;;;;;;;;;5090531;28;20028;-55
2024/03/07 01:46:02;;;;;;;89.38;29.95;;;;;;;;;;5105759;28;20111;-54
2024/03/07 01:48:29;;;;;;;99.70;31.77;;;;;;;;;;5102301;28;20026;-54
2024/03/07 01:50:55;;;;;;;97.32;31.05;;;;;;;;;;5094319;28;20102;-55
2024/03/07 01:53:22;;;;;;;96.00;31.35;;;;;;;;;;5090742;28;20028;-54
2024/03/07 01:55:48;;;;;;;92.75;30.58;;;;;;;;;;5094618;28;20073;-54
2024/03/07 01:58:14;;;;;;;101.95;30.83;;;;;;;;;;5098214;28;20035;-55
2024/03/07 02:00:40;;;;;;;92.25;28.67;;;;;;;;;;5111812;28;20031;-51
2024/03/07 02:03:06;;;;;;;91.32;29.25;;;;;;;;;;5093779;28;20090;-54
2024/03/07 02:05:33;;;;;;;90.47;28.90;;;;;;;;;;5098375;28;20031;-54
2024/03/07 02:07:59;;;;;;;100.60;29.15;;;;;;;;;;5097291;28;20506;-53
2024/03/07 02:10:25;;;;;;;95.45;30.80;;;;;;;;;;5102931;28;20032;-52
2024/03/07 02:12:51;;;;;;;78.80;27.67;;;;;;;;;;5096332;28;20020;-54
2024/03/07 02:15:17;;;;;;;95.68;29.13;;;;;;;;;;5105851;28;20128;-54
2024/03/07 02:17:43;;;;;;;94.22;30.58;;;;;;;;;;5109404;28;20054;-52
2024/03/07 02:20:10;;;;;;;85.95;26.55;;;;;;;;;;5102156;28;20031;-54
2024/03/07 02:22:37;;;;;;;97.00;30.17;;;;;;;;;;5080613;28;20381;-55
2024/03/07 02:25:03;;;;;;;85.18;30.10;;;;;;;;;;5099661;28;20038;-53
2024/03/07 02:27:29;;;;;;;83.38;29.35;;;;;;;;;;5105203;28;20535;-54
2024/03/07 02:29:55;;;;;;;93.32;30.20;;;;;;;;;;5098598;28;20034;-53
2024/03/07 02:32:23;;;;;;;85.10;28.60;;;;;;;;;;5093298;28;20016;-52
2024/03/07 02:34:49;;;;;;;85.13;28.17;;;;;;;;;;5089509;28;20032;-51
2024/03/07 02:37:15;;;;;;;90.47;29.75;;;;;;;;;;5086971;28;20032;-52
2024/03/07 02:39:41;;;;;;;84.03;28.15;;;;;;;;;;5088049;28;20519;-54
2024/03/07 02:42:07;;;;;;;85.88;29.30;;;;;;;;;;5093567;28;20035;-57
2024/03/07 02:44:33;;;;;;;87.45;28.45;;;;;;;;;;5105324;28;20031;-52
2024/03/07 02:46:59;;;;;;;85.20;29.45;;;;;;;;;;5083127;28;20403;-53
2024/03/07 02:49:25;;;;;;;100.88;29.48;;;;;;;;;;5091725;28;20111;-54
2024/03/07 02:51:51;;;;;;;89.60;27.67;;;;;;;;;;5094253;28;20062;-53
2024/03/07 02:54:17;;;;;;;83.97;28.05;;;;;;;;;;5089552;28;20031;-53
2024/03/07 02:56:43;;;;;;;79.38;26.23;;;;;;;;;;5076932;28;20032;-52
2024/03/07 02:59:09;;;;;;;83.53;28.77;;;;;;;;;;5097374;28;20445;-53
2024/03/07 03:01:35;;;;;;;76.53;25.88;;;;;;;;;;5089797;28;20503;-53
2024/03/07 03:04:02;;;;;;;72.38;25.42;;;;;;;;;;5106703;28;20390;-53
2024/03/07 03:06:28;;;;;;;81.68;26.70;;;;;;;;;;5104817;28;20023;-53
2024/03/07 03:08:54;;;;;;;76.20;27.02;;;;;;;;;;5113850;28;20475;-54
2024/03/07 03:11:21;;;;;;;71.13;26.02;;;;;;;;;;5100274;28;20443;-58
2024/03/07 03:13:48;;;;;;;78.28;27.15;;;;;;;;;;5099868;28;20569;-53
2024/03/07 03:16:14;;;;;;;78.50;28.98;;;;;;;;;;5097461;28;20028;-53
2024/03/07 03:18:40;;;;;;;80.20;27.33;;;;;;;;;;5092443;28;20051;-54
2024/03/07 03:21:07;;;;;;;72.95;26.85;;;;;;;;;;5095634;28;20039;-54
2024/03/07 03:23:34;;;;;;;90.47;30.42;;;;;;;;;;5102156;28;20150;-54
2024/03/07 03:26:00;;;;;;;92.75;32.10;;;;;;;;;;5097491;28;20110;-52
2024/03/07 03:28:26;;;;;;;79.30;30.35;;;;;;;;;;5097387;28;20020;-53
2024/03/07 03:30:52;;;;;;;84.55;30.40;;;;;;;;;;5097493;28;20081;-52
2024/03/07 03:33:20;;;;;;;83.20;30.33;;;;;;;;;;5090347;28;20028;-54
2024/03/07 03:35:47;;;;;;;95.40;32.17;;;;;;;;;;5101064;28;20399;-53
2024/03/07 03:38:13;;;;;;;94.10;31.50;;;;;;;;;;5100440;28;20040;-52
2024/03/07 03:40:39;;;;;;;83.13;31.45;;;;;;;;;;5101431;28;20035;-51
2024/03/07 03:43:05;;;;;;;101.22;35.10;;;;;;;;;;5092830;28;20107;-52
2024/03/07 03:45:34;;;;;;;92.63;33.05;;;;;;;;;;5102489;28;20379;-52
2024/03/07 03:48:00;;;;;;;84.07;30.67;;;;;;;;;;5101986;28;20016;-53
2024/03/07 03:50:27;;;;;;;88.63;31.80;;;;;;;;;;5102854;28;20054;-53
2024/03/07 03:52:53;;;;;;;91.93;32.53;;;;;;;;;;5102042;28;20016;-54
2024/03/07 03:55:20;;;;;;;90.80;32.20;;;;;;;;;;5098824;28;20031;-52
2024/03/07 03:57:49;;;;;;;90.05;33.75;;;;;;;;;;5102325;28;20040;-54
2024/03/07 04:00:16;;;;;;;87.45;33.72;;;;;;;;;;5103051;28;20022;-52
2024/03/07 04:02:47;;;;;;;93.95;33.05;;;;;;;;;;5101199;28;20062;-54
2024/03/07 04:05:14;;;;;;;97.90;34.13;;;;;;;;;;5106433;28;20038;-54
2024/03/07 04:07:41;;;;;;;96.75;34.80;;;;;;;;;;5095424;28;20101;-49
2024/03/07 04:10:08;;;;;;;84.18;31.58;;;;;;;;;;5102943;28;20119;-52
2024/03/07 04:12:37;;;;;;;85.63;32.90;;;;;;;;;;5101715;28;20025;-51
2024/03/07 04:15:03;;;;;;;88.68;33.25;;;;;;;;;;5100365;28;20506;-53
2024/03/07 04:17:30;;;;;;;91.95;33.45;;;;;;;;;;5095688;28;20044;-56
2024/03/07 04:19:58;;;;;;;80.55;31.70;;;;;;;;;;5087432;28;20032;-57
2024/03/07 04:22:24;;;;;;;80.47;32.15;;;;;;;;;;5078055;28;20103;-58
2024/03/07 04:24:53;;;;;;;85.07;30.08;;;;;;;;;;5071853;28;20115;-57
2024/03/07 04:27:19;;;;;;;72.15;30.08;;;;;;;;;;5082861;28;20438;-57
2024/03/07 04:29:47;;;;;;;74.60;29.10;;;;;;;;;;5086132;28;20059;-57
2024/03/07 04:32:13;;;;;;;65.85;28.95;;;;;;;;;;5074142;28;20016;-57
2024/03/07 04:34:39;;;;;;;79.47;30.80;;;;;;;;;;5079898;28;20166;-57
2024/03/07 04:37:05;;;;;;;78.53;31.40;;;;;;;;;;5075851;28;20114;-57
2024/03/07 04:39:34;;;;;;;84.18;30.52;;;;;;;;;;5072957;28;20083;-56
2024/03/07 04:42:01;;;;;;;75.72;29.45;;;;;;;;;;5081063;28;20155;-56
2024/03/07 04:44:27;;;;;;;71.43;30.40;;;;;;;;;;5077189;28;20032;-56
2024/03/07 04:46:55;;;;;;;79.78;29.50;;;;;;;;;;5086366;28;20395;-56
2024/03/07 04:49:24;;;;;;;83.20;29.60;;;;;;;;;;5072706;28;20388;-53
2024/03/07 04:51:51;;;;;;;74.18;30.38;;;;;;;;;;5075031;28;20028;-57
2024/03/07 04:54:18;;;;;;;82.75;28.90;;;;;;;;;;5073677;28;20028;-55
2024/03/07 04:56:45;;;;;;;82.18;30.17;;;;;;;;;;5072002;28;20071;-57
2024/03/07 04:59:11;;;;;;;78.85;29.25;;;;;;;;;;5080929;28;20087;-56
2024/03/07 05:01:37;;;;;;;76.65;30.13;;;;;;;;;;5076808;28;20487;-55
2024/03/07 05:04:03;;;;;;;78.90;30.65;;;;;;;;;;5067840;28;20090;-58
2024/03/07 05:06:33;;;;;;;74.50;30.60;;;;;;;;;;5079776;28;20064;-57
2024/03/07 05:08:59;;;;;;;75.50;30.42;;;;;;;;;;5082335;28;20043;-57
2024/03/07 05:11:25;;;;;;;87.32;32.90;;;;;;;;;;5073280;28;20016;-57
2024/03/07 05:13:51;;;;;;;81.32;29.90;;;;;;;;;;5076236;28;20032;-59
2024/03/07 05:16:19;;;;;;;78.88;31.13;;;;;;;;;;5072242;28;20047;-57
2024/03/07 05:18:45;;;;;;;85.90;31.27;;;;;;;;;;5066503;28;20051;-57
2024/03/07 05:23:57;;;;;;;73.65;29.90;;;;;;;;;;5072791;28;20128;-55
2024/03/07 05:26:23;;;;;;;68.70;29.15;;;;;;;;;;5069979;28;20028;-57
2024/03/07 05:28:49;;;;;;;71.28;28.30;;;;;;;;;;5074213;28;20012;-59
2024/03/07 05:31:17;;;;;;;71.68;30.95;;;;;;;;;;5070299;28;20025;-57
2024/03/07 05:33:44;;;;;;;69.07;27.67;;;;;;;;;;5078709;28;20048;-57
2024/03/07 05:36:15;;;;;;;71.13;28.95;;;;;;;;;;5079736;28;20337;-55
2024/03/07 05:38:44;;;;;;;78.90;27.65;;;;;;;;;;5078970;28;20028;-57
2024/03/07 05:41:12;;;;;;;76.85;33.30;;;;;;;;;;5078185;28;20028;-57
2024/03/07 05:43:38;;;;;;;71.00;28.98;;;;;;;;;;5083751;28;20036;-56
2024/03/07 05:46:05;;;;;;;71.07;28.45;;;;;;;;;;5079325;28;20024;-57
2024/03/07 05:48:31;;;;;;;65.10;27.25;;;;;;;;;;5074197;28;20031;-57
2024/03/07 05:50:58;;;;;;;71.50;29.13;;;;;;;;;;5075360;28;20036;-57
2024/03/07 05:53:24;;;;;;;67.03;26.95;;;;;;;;;;5073956;28;20017;-57
2024/03/07 05:55:50;;;;;;;63.63;26.35;;;;;;;;;;5073519;28;20465;-57
2024/03/07 05:58:19;;;;;;;65.70;27.33;;;;;;;;;;5074934;28;20115;-57
2024/03/07 06:00:51;;;;;;;64.45;27.05;;;;;;;;;;5073676;28;20067;-57
2024/03/07 06:03:19;;;;;;;66.47;26.42;;;;;;;;;;5080781;28;20108;-57
2024/03/07 06:05:48;;;;;;;68.43;28.05;;;;;;;;;;5075484;28;20028;-57
2024/03/07 06:08:16;;;;;;;68.20;26.70;;;;;;;;;;5083194;28;20027;-56
2024/03/07 06:10:42;;;;;;;66.65;26.60;;;;;;;;;;5069373;28;20035;-57
2024/03/07 06:13:08;;;;;;;64.20;27.38;;;;;;;;;;5079320;28;20020;-60
2024/03/07 06:15:34;;;;;;;63.28;26.45;;;;;;;;;;5080197;28;20029;-57
2024/03/07 06:18:00;;;;;;;68.53;28.20;;;;;;;;;;5074692;28;20040;-57
2024/03/07 06:20:26;;;;;;;64.70;26.67;;;;;;;;;;5069414;28;20025;-57
2024/03/07 06:22:52;;;;;;;64.28;25.70;;;;;;;;;;5073466;28;20036;-57
2024/03/07 06:25:23;;;;;;;63.72;28.10;;;;;;;;;;5073025;28;20448;-58
2024/03/07 06:27:49;;;;;;;66.65;26.63;;;;;;;;;;5073824;28;20033;-57
2024/03/07 06:30:18;;;;;;;64.60;26.77;;;;;;;;;;5075477;28;20016;-57
2024/03/07 06:32:47;;;;;;;68.35;27.08;;;;;;;;;;5078692;28;20047;-57
2024/03/07 06:35:13;;;;;;;61.53;24.67;;;;;;;;;;5071705;28;20028;-57
2024/03/07 06:37:39;;;;;;;63.58;26.80;;;;;;;;;;5070231;28;20579;-55
2024/03/07 06:40:09;;;;;;;68.20;27.33;;;;;;;;;;5073768;28;20036;-54
2024/03/07 06:42:36;;;;;;;59.53;25.15;;;;;;;;;;5072932;28;20025;-56
2024/03/07 06:45:03;;;;;;;78.22;29.40;;;;;;;;;;5078270;28;20082;-57
2024/03/07 06:47:29;;;;;;;64.25;28.80;;;;;;;;;;5060928;28;20125;-54
2024/03/07 06:49:56;;;;;;;64.70;27.13;;;;;;;;;;5071353;28;20353;-54
2024/03/07 06:52:22;;;;;;;66.72;28.52;;;;;;;;;;5080983;28;20028;-54
2024/03/07 06:54:48;;;;;;;63.90;27.77;;;;;;;;;;5073111;28;20131;-56
2024/03/07 06:57:13;;;;;;;67.40;28.95;;;;;;;;;;5072835;28;20036;-54
2024/03/07 06:59:39;;;;;;;64.13;27.73;;;;;;;;;;5072323;28;20396;-55
2024/03/07 07:02:08;;;;;;;68.35;27.52;;;;;;;;;;5077535;28;20028;-57
2024/03/07 07:04:41;;;;;;;64.00;25.73;;;;;;;;;;5071689;28;20104;-53
2024/03/07 07:07:08;;;;;;;;;;;;;;;;;;5075413;28;20029;-53
2024/03/07 07:09:35;;;;;;;62.15;27.15;;;;;;;;;;5072513;28;20372;-54
2024/03/07 07:12:03;;;;;;;60.42;25.30;;;;;;;;;;5076070;28;20383;-55
2024/03/07 07:14:29;;;;;;;62.33;27.58;;;;;;;;;;5079971;28;20504;-54
2024/03/07 07:16:56;;;;;;;64.68;26.27;;;;;;;;;;5071943;28;20054;-54
2024/03/07 07:19:22;;;;;;;62.17;26.55;;;;;;;;;;5089713;28;20039;-54
2024/03/07 07:21:53;;;;;;;71.32;25.58;;;;;;;;;;5092013;28;20036;-54
2024/03/07 07:24:21;;;;;;;65.38;26.30;;;;;;;;;;5091926;28;20044;-55
2024/03/07 07:26:47;;;;;;;58.42;24.30;;;;;;;;;;5079239;28;20498;-54
2024/03/07 07:29:13;;;;;;;63.70;26.25;;;;;;;;;;5093040;28;20031;-54
2024/03/07 07:31:39;;;;;;;50.55;22.95;;;;;;;;;;5092159;28;20095;-54
2024/03/07 07:34:06;;;;;;;50.45;22.00;;;;;;;;;;5092390;28;20499;-54
2024/03/07 07:36:32;;;;;;;51.42;23.13;;;;;;;;;;5091551;28;20526;-53
2024/03/07 07:38:58;;;;;;;46.45;21.05;;;;;;;;;;5091230;28;20119;-54
2024/03/07 07:41:24;;;;;;;47.90;20.05;;;;;;;;;;5091702;28;20476;-54
2024/03/07 07:43:51;;;;;;;45.30;19.15;;;;;;;;;;5091926;28;20047;-54
2024/03/07 07:46:17;;;;;;;39.55;19.27;;;;;;;;;;5096547;28;20103;-56
2024/03/07 07:48:43;;;;;;;41.88;19.02;;;;;;;;;;5105393;28;20107;-53
2024/03/07 07:51:09;;;;;;;39.70;17.98;;;;;;;;;;5091229;28;20413;-52
2024/03/07 07:53:35;;;;;;;40.25;18.20;;;;;;;;;;5091579;28;20085;-55
2024/03/07 07:56:01;;;;;;;36.38;16.92;;;;;;;;;;5092017;28;20039;-52
2024/03/07 07:58:27;;;;;;;38.10;17.80;;;;;;;;;;5091900;28;20048;-53
2024/03/07 08:00:53;;;;;;;38.22;17.55;;;;;;;;;;5090983;28;20395;-52
2024/03/07 08:03:22;;;;;;;46.42;18.30;;;;;;;;;;5090946;28;20107;-54
2024/03/07 08:05:48;;;;;;;33.38;15.60;;;;;;;;;;5091309;28;20069;-54
2024/03/07 08:08:16;;;;;;;36.72;16.23;;;;;;;;;;5097015;28;20020;-54
2024/03/07 08:10:42;;;;;;;32.10;14.38;;;;;;;;;;5085343;28;20475;-55
2024/03/07 08:13:10;;;;;;;35.47;14.80;;;;;;;;;;5090021;28;20024;-54
2024/03/07 08:15:36;;;;;;;36.72;15.02;;;;;;;;;;5092849;28;20065;-55
2024/03/07 08:18:08;;;;;;;34.40;14.65;;;;;;;;;;5110417;28;20059;-55
2024/03/07 08:20:34;;;;;;;29.90;13.82;;;;;;;;;;5091658;28;20396;-54
2024/03/07 08:23:00;;;;;;;31.25;14.88;;;;;;;;;;5090539;28;20024;-53
2024/03/07 08:25:27;;;;;;;33.50;14.30;;;;;;;;;;5091519;28;20040;-54
2024/03/07 08:27:54;;;;;;;35.22;14.63;;;;;;;;;;5091242;28;20024;-53
2024/03/07 08:30:20;;;;;;;33.05;13.73;;;;;;;;;;5091485;28;20035;-52
2024/03/07 08:32:47;;;;;;;26.23;12.73;;;;;;;;;;5091078;28;20036;-54
2024/03/07 08:35:13;;;;;;;25.83;13.38;;;;;;;;;;5091363;28;20024;-54
2024/03/07 08:37:40;;;;;;;29.02;13.27;;;;;;;;;;5090884;28;20024;-54
2024/03/07 08:40:06;;;;;;;29.38;12.93;;;;;;;;;;5098492;28;20023;-54
2024/03/07 08:42:36;;;;;;;26.13;12.68;;;;;;;;;;5110866;28;20024;-54
2024/03/07 08:45:04;;;;;;;27.33;13.02;;;;;;;;;;5086745;28;20029;-52
2024/03/07 08:47:30;;;;;;;24.27;12.15;;;;;;;;;;5092106;28;20032;-54
2024/03/07 08:49:57;;;;;;;32.85;12.55;;;;;;;;;;5091507;28;20036;-51
2024/03/07 08:52:23;;;;;;;28.60;12.10;;;;;;;;;;5090478;28;20024;-53
2024/03/07 08:54:49;;;;;;;21.08;10.43;;;;;;;;;;5091077;28;20032;-53
2024/03/07 08:57:17;;;;;;;28.10;10.50;;;;;;;;;;5091362;28;20020;-56
2024/03/07 08:59:43;;;;;;;21.60;8.93;;;;;;;;;;5091296;28;20035;-54
2024/03/07 09:02:10;;;;;;;21.80;9.73;;;;;;;;;;5090140;28;20024;-55
2024/03/07 09:04:36;;;;;;;22.05;9.57;;;;;;;;;;5090351;28;20652;-54
2024/03/07 09:07:02;;;;;;;16.77;8.55;;;;;;;;;;5095931;28;20032;-54
2024/03/07 09:09:28;;;;;;;16.98;8.50;;;;;;;;;;5090918;28;20122;-55
2024/03/07 09:11:54;;;;;;;17.88;8.57;;;;;;;;;;5090787;28;20020;-56
2024/03/07 09:14:20;;;;;;;17.13;8.88;;;;;;;;;;5094359;28;20032;-56
2024/03/07 09:16:48;;;;;;;21.27;8.40;;;;;;;;;;5094787;28;20572;-57
2024/03/07 09:19:14;;;;;;;14.77;8.35;;;;;;;;;;5086563;28;20437;-57
2024/03/07 09:21:40;;;;;;;15.98;8.75;;;;;;;;;;5092363;28;20391;-54
2024/03/07 09:24:07;;;;;;;15.25;7.63;;;;;;;;;;5078438;28;20476;-57
2024/03/07 09:26:33;;;;;;;17.10;7.45;;;;;;;;;;5092594;28;20020;-53
2024/03/07 09:29:05;;;;;;;15.45;7.85;;;;;;;;;;5086550;28;20481;-57
2024/03/07 09:31:31;;;;;;;16.63;8.20;;;;;;;;;;5093280;28;20024;-56
2024/03/07 09:33:58;;;;;;;17.15;7.90;;;;;;;;;;5094369;28;20035;-56
2024/03/07 09:36:24;;;;;;;15.35;7.90;;;;;;;;;;5094426;28;20154;-56
2024/03/07 09:38:50;;;;;;;19.42;8.55;;;;;;;;;;5091855;28;20032;-56
2024/03/07 09:41:16;;;;;;;19.95;8.40;;;;;;;;;;5094488;28;20038;-56
2024/03/07 09:43:46;;;;;;;17.00;8.95;;;;;;;;;;5080958;28;20079;-55
2024/03/07 09:46:12;;;;;;;17.88;8.52;;;;;;;;;;5093555;28;20099;-56
2024/03/07 09:48:38;;;;;;;17.80;7.90;;;;;;;;;;5094379;28;20093;-57
2024/03/07 09:51:05;;;;;;;13.32;7.57;;;;;;;;;;5094075;28;20099;-57
2024/03/07 09:53:32;;;;;;;18.75;8.50;;;;;;;;;;5087006;28;20496;-57
2024/03/07 09:55:58;;;;;;;18.85;8.02;;;;;;;;;;5094311;28;20020;-57
2024/03/07 09:58:26;;;;;;;16.73;7.55;;;;;;;;;;5111260;28;20407;-57
2024/03/07 10:00:53;;;;;;;15.95;8.15;;;;;;;;;;5112769;28;20023;-57
2024/03/07 10:03:23;;;;;;;18.83;8.55;;;;;;;;;;5106076;28;20035;-57
2024/03/07 10:05:49;;;;;;;17.15;8.70;;;;;;;;;;5091335;28;20111;-56
2024/03/07 10:08:16;;;;;;;17.10;8.35;;;;;;;;;;5098408;28;20027;-53
2024/03/07 10:10:47;;;;;;;14.02;7.10;;;;;;;;;;5104000;28;20497;-55
2024/03/07 10:13:13;;;;;;;13.68;7.60;;;;;;;;;;5109381;28;20031;-55
2024/03/07 10:15:42;;;;;;;16.33;8.60;;;;;;;;;;5114300;28;20023;-52
2024/03/07 10:18:13;;;;;;;16.98;8.10;;;;;;;;;;5113870;28;20048;-56
2024/03/07 10:20:42;;;;;;;16.27;8.32;;;;;;;;;;5110907;28;20107;-54
2024/03/07 10:23:08;;;;;;;16.63;7.95;;;;;;;;;;5095340;28;20073;-56
2024/03/07 10:25:34;;;;;;;14.90;8.05;;;;;;;;;;5101347;28;20449;-55
2024/03/07 10:28:00;;;;;;;17.40;8.05;;;;;;;;;;5113809;28;20054;-56
2024/03/07 10:30:27;;;;;;;14.32;7.60;;;;;;;;;;5104090;28;20034;-56
2024/03/07 10:32:57;;;;;;;15.45;7.95;;;;;;;;;;5111308;28;20099;-56
2024/03/07 10:35:27;;;;;;;13.75;7.45;;;;;;;;;;5093499;28;20024;-55
2024/03/07 10:37:53;;;;;;;13.27;7.28;;;;;;;;;;5079495;28;20368;-54
2024/03/07 10:40:21;;;;;;;14.02;6.85;;;;;;;;;;5080764;28;20016;-56
2024/03/07 10:42:51;;;;;;;10.38;6.75;;;;;;;;;;5111468;28;20543;-55
2024/03/07 10:45:19;;;;;;;10.25;6.28;;;;;;;;;;5113512;28;20023;-56
2024/03/07 10:47:47;;;;;;;14.48;6.93;;;;;;;;;;5113861;28;20051;-55
2024/03/07 10:50:32;;;;;;;11.68;5.97;;;;;;;;;;5104038;28;20039;-56
2024/03/07 10:53:02;;;;;;;11.90;6.88;;;;;;;;;;5087261;28;20024;-57
2024/03/07 10:55:41;;;;;;;12.38;7.05;;;;;;;;;;5113445;28;20460;-55
2024/03/07 10:58:12;;;;;;;13.00;6.72;;;;;;;;;;5112330;28;20036;-56
2024/03/07 11:00:45;;;;;;;16.83;7.15;;;;;;;;;;5098114;28;20063;-56
2024/03/07 11:03:11;;;;;;;10.93;6.45;;;;;;;;;;5104210;28;20022;-55
2024/03/07 11:05:37;;;;;;;11.07;6.55;;;;;;;;;;5101510;28;20091;-56
2024/03/07 11:08:11;;;;;;;18.38;6.55;;;;;;;;;;5098188;28;20420;-56
2024/03/07 11:10:37;;;;;;;;;;;;;;;;;;5088256;28;20643;-54
2024/03/07 11:13:03;;;;;;;9.95;6.10;;;;;;;;;;5108648;28;19904;-54
2024/03/07 11:15:30;;;;;;;13.38;6.30;;;;;;;;;;5113210;28;20035;-56
2024/03/07 11:17:56;;;;;;;15.32;6.80;;;;;;;;;;5113166;28;20477;-58
2024/03/07 11:20:25;;;;;;;13.73;6.57;;;;;;;;;;5106262;28;20463;-57
2024/03/07 11:22:54;;;;;;;12.35;6.63;;;;;;;;;;5104232;28;20016;-57
2024/03/07 11:25:21;;;;;;;10.65;5.63;;;;;;;;;;5113208;28;20031;-57
2024/03/07 11:27:53;;;;;;;14.77;7.05;;;;;;;;;;5105857;28;20110;-58
2024/03/07 11:30:21;;;;;;;12.70;6.87;;;;;;;;;;5101784;28;20094;-57
2024/03/07 11:32:49;;;;;;;14.93;7.28;;;;;;;;;;5112277;28;20038;-57
2024/03/07 11:35:15;;;;;;;15.68;6.15;;;;;;;;;;5109975;28;20114;-57
2024/03/07 11:37:48;;;;;;;11.02;6.85;;;;;;;;;;5112414;28;20057;-57
2024/03/07 11:40:20;;;;;;;11.45;6.75;;;;;;;;;;5112752;28;20019;-57
2024/03/07 11:42:47;;;;;;;11.32;6.63;;;;;;;;;;5112057;28;20471;-58
2024/03/07 11:45:24;;;;;;;12.57;6.70;;;;;;;;;;5112639;28;20084;-57
2024/03/07 11:47:50;;;;;;;13.32;6.95;;;;;;;;;;5112223;28;20347;-58
2024/03/07 11:50:19;;;;;;;11.80;6.47;;;;;;;;;;5099434;28;20107;-57
2024/03/07 11:52:46;;;;;;;16.45;6.85;;;;;;;;;;5109616;28;20375;-56
2024/03/07 11:55:12;;;;;;;15.95;7.32;;;;;;;;;;5112741;28;20067;-57
2024/03/07 11:57:40;;;;;;;11.27;6.20;;;;;;;;;;5112075;28;20027;-57
2024/03/07 12:00:10;;;;;;;12.82;6.32;;;;;;;;;;5105900;28;20042;-57
2024/03/07 12:02:37;;;;;;;10.50;6.15;;;;;;;;;;5108602;28;20083;-57
2024/03/07 12:05:05;;;;;;;10.57;6.72;;;;;;;;;;5098818;28;20390;-57
2024/03/07 12:07:31;;;;;;;13.32;7.68;;;;;;;;;;5096629;28;20378;-57
2024/03/07 12:09:57;;;;;;;11.32;7.13;;;;;;;;;;5091794;28;20253;-57
2024/03/07 12:12:24;;;;;;;10.95;6.75;;;;;;;;;;5097311;28;20023;-57
2024/03/07 12:14:54;;;;;;;10.63;6.40;;;;;;;;;;5111744;28;20047;-57
2024/03/07 12:17:20;;;;;;;12.95;6.68;;;;;;;;;;5111943;28;20391;-57
2024/03/07 12:19:47;;;;;;;13.80;6.43;;;;;;;;;;5112136;28;20544;-57
2024/03/07 12:22:13;;;;;;;11.07;5.93;;;;;;;;;;5099968;28;20023;-57
2024/03/07 12:24:40;;;;;;;11.75;7.15;;;;;;;;;;5110779;28;20506;-57
2024/03/07 12:27:13;;;;;;;12.02;6.85;;;;;;;;;;5106781;28;20124;-60
2024/03/07 12:29:39;;;;;;;10.40;6.38;;;;;;;;;;5093857;28;20027;-60
2024/03/07 12:32:15;;;;;;;12.98;6.18;;;;;;;;;;5111690;28;20023;-59
2024/03/07 12:34:45;;;;;;;14.02;6.32;;;;;;;;;;5111620;28;20027;-60
2024/03/07 12:37:11;;;;;;;11.93;6.47;;;;;;;;;;5103766;28;20027;-60
2024/03/07 12:39:46;;;;;;;11.43;6.28;;;;;;;;;;5111528;28;20035;-58
2024/03/07 12:42:14;;;;;;;9.82;5.95;;;;;;;;;;5111270;28;20122;-60
2024/03/07 12:44:47;;;;;;;10.00;6.28;;;;;;;;;;5111645;28;20031;-59
2024/03/07 12:47:16;;;;;;;12.18;6.53;;;;;;;;;;5112742;28;20483;-58
2024/03/07 12:49:43;;;;;;;13.77;6.38;;;;;;;;;;5112420;28;20031;-59
2024/03/07 12:52:09;;;;;;;10.68;6.43;;;;;;;;;;5115176;28;20395;-57
2024/03/07 12:54:40;;;;;;;12.27;6.75;;;;;;;;;;5113651;28;20023;-58
2024/03/07 12:57:06;;;;;;;11.20;6.60;;;;;;;;;;5118450;28;20459;-58
2024/03/07 12:59:32;;;;;;;9.40;6.40;;;;;;;;;;5112624;28;20053;-58
2024/03/07 13:01:58;;;;;;;10.65;6.20;;;;;;;;;;5106860;28;20055;-59
2024/03/07 13:04:27;;;;;;;11.52;6.28;;;;;;;;;;5112540;28;20066;-58
2024/03/07 13:06:53;;;;;;;12.00;6.25;;;;;;;;;;5108742;28;20046;-58
2024/03/07 13:09:26;;;;;;;11.13;6.28;;;;;;;;;;5107523;28;20554;-58
2024/03/07 13:11:52;;;;;;;11.73;6.25;;;;;;;;;;5103709;28;20475;-58
2024/03/07 13:14:18;;;;;;;10.15;6.05;;;;;;;;;;5117784;28;20020;-58
2024/03/07 13:16:45;;;;;;;10.70;6.20;;;;;;;;;;5118012;28;20116;-58
2024/03/07 13:19:12;;;;;;;12.90;6.82;;;;;;;;;;5118076;28;20030;-58
2024/03/07 13:21:39;;;;;;;14.13;6.40;;;;;;;;;;5085463;28;20091;-58
2024/03/07 13:24:05;;;;;;;12.32;6.30;;;;;;;;;;5117941;28;20027;-58
2024/03/07 13:26:31;;;;;;;11.38;6.85;;;;;;;;;;5118064;28;20213;-58
2024/03/07 13:29:01;;;;;;;12.30;6.40;;;;;;;;;;5109939;28;20028;-60
2024/03/07 13:31:28;;;;;;;10.95;6.05;;;;;;;;;;5116414;28;20027;-60
2024/03/07 13:33:54;;;;;;;12.40;6.70;;;;;;;;;;5115624;28;20056;-58
2024/03/07 13:36:24;;;;;;;15.57;6.30;;;;;;;;;;5104385;28;20489;-58
2024/03/07 13:38:51;;;;;;;11.30;6.80;;;;;;;;;;5118226;28;20043;-58
2024/03/07 13:41:18;;;;;;;12.73;6.95;;;;;;;;;;5117755;28;20032;-58
2024/03/07 13:43:44;;;;;;;13.30;6.85;;;;;;;;;;5117259;28;20027;-60
2024/03/07 13:46:12;;;;;;;12.88;7.50;;;;;;;;;;5117875;28;20402;-59
2024/03/07 13:48:38;;;;;;;10.32;6.90;;;;;;;;;;5115139;28;20028;-60
2024/03/07 13:51:08;;;;;;;11.48;7.05;;;;;;;;;;5108599;28;20393;-58
2024/03/07 13:53:36;;;;;;;11.55;7.07;;;;;;;;;;5102268;28;20475;-61
2024/03/07 13:56:29;;;;;;;9.95;6.28;;;;;;;;;;5110035;28;20027;-56
2024/03/07 13:59:11;;;;;;;11.65;6.90;;;;;;;;;;5105182;28;20024;-60
2024/03/07 14:01:38;;;;;;;10.15;6.80;;;;;;;;;;5097825;28;20048;-59
2024/03/07 14:04:22;;;;;;;11.07;7.18;;;;;;;;;;5113518;28;20023;-61
2024/03/07 14:06:48;;;;;;;12.80;7.88;;;;;;;;;;5103831;28;20083;-60
2024/03/07 14:09:20;;;;;;;11.95;7.60;;;;;;;;;;5108815;28;20024;-59
2024/03/07 14:12:13;;;;;;;11.55;8.07;;;;;;;;;;5100788;28;20059;-60
2024/03/07 14:15:00;;;;;;;16.85;8.68;;;;;;;;;;5107565;28;20084;-59
2024/03/07 14:17:46;;;;;;;14.25;7.07;;;;;;;;;;5108682;28;20105;-60
2024/03/07 14:20:40;;;;;;;13.68;8.15;;;;;;;;;;5089471;28;20106;-60
2024/03/07 14:23:20;;;;;;;14.05;7.65;;;;;;;;;;5093354;28;20105;-59
2024/03/07 14:25:54;;;;;;;15.43;8.63;;;;;;;;;;5096760;28;20120;-60
2024/03/07 14:28:39;;;;;;;14.75;7.88;;;;;;;;;;5093691;28;20024;-59